Enosburg, Vermont
Current Conditions -  °F | °C
As of 10:15 PM on Thursday 18 Dec 2014 (Local Time) from KFSO Reporting Station
Haze Haze  
Wind Chill: 28°   Ceiling: 700
Heat Index: 28°   Visibility: 5mi
Dew Point: 26°   Wind: 0mph
Humidity: 94%   Direction: NA
Pressure: 29.93"   Gusts: NA
Location:  44.8764°N, 72.758°W
Report Text: KFSO 190315Z AUTO 00000KT 5SM BR OVC007 M02/M03 A2993 RMK AO2 T10231031
Loading
Personal Weather Stations






























Interactive Weather Map New forecast layout! Learn more

10-Day Weather Forecast

Advertisements
Track Severe Weather on mobile